sensor_id;sensor_type;location;lat;lon;timestamp;pressure;altitude;pressure_sealevel;temperature;humidity
11395;BME280;5753;54.402;10.220;2022-08-01T03:52:49;101288.00;;;28.99;50.83
11395;BME280;5753;54.402;10.220;2022-08-01T03:55:17;101287.63;;;28.72;51.77
11395;BME280;5753;54.402;10.220;2022-08-01T03:57:54;101292.94;;;28.37;51.88
11395;BME280;5753;54.402;10.220;2022-08-01T04:00:30;101296.31;;;28.58;51.72
11395;BME280;5753;54.402;10.220;2022-08-01T04:03:06;101290.03;;;28.94;50.72
11395;BME280;5753;54.402;10.220;2022-08-01T04:05:34;101296.13;;;28.78;50.82
11395;BME280;5753;54.402;10.220;2022-08-01T04:08:04;101299.31;;;28.85;50.48
11395;BME280;5753;54.402;10.220;2022-08-01T04:10:30;101309.72;;;28.90;50.68
11395;BME280;5753;54.402;10.220;2022-08-01T04:13:02;101301.56;;;29.26;50.04
11395;BME280;5753;54.402;10.220;2022-08-01T04:15:28;101303.00;;;29.00;50.02
11395;BME280;5753;54.402;10.220;2022-08-01T04:17:55;101301.03;;;29.19;50.29
11395;BME280;5753;54.402;10.220;2022-08-01T04:20:21;101308.53;;;28.95;50.34
11395;BME280;5753;54.402;10.220;2022-08-01T04:22:50;101314.03;;;28.58;51.50
11395;BME280;5753;54.402;10.220;2022-08-01T04:25:29;101315.94;;;29.22;49.89
11395;BME280;5753;54.402;10.220;2022-08-01T04:27:57;101314.44;;;28.83;50.96
11395;BME280;5753;54.402;10.220;2022-08-01T04:30:33;101317.81;;;29.53;49.30
11395;BME280;5753;54.402;10.220;2022-08-01T04:33:10;101331.22;;;28.14;52.87
11395;BME280;5753;54.402;10.220;2022-08-01T04:35:39;101333.19;;;27.17;56.30
11395;BME280;5753;54.402;10.220;2022-08-01T04:38:22;101335.72;;;27.95;54.02
11395;BME280;5753;54.402;10.220;2022-08-01T04:44:15;101336.50;;;29.18;49.78
11395;BME280;5753;54.402;10.220;2022-08-01T04:46:54;101339.53;;;28.43;52.00
11395;BME280;5753;54.402;10.220;2022-08-01T04:52:38;101340.16;;;29.33;49.95
11395;BME280;5753;54.402;10.220;2022-08-01T04:55:05;101340.97;;;29.51;48.87
11395;BME280;5753;54.402;10.220;2022-08-01T04:57:39;101345.03;;;29.07;49.94
11395;BME280;5753;54.402;10.220;2022-08-01T05:00:07;101352.63;;;28.80;51.69
11395;BME280;5753;54.402;10.220;2022-08-01T05:02:34;101347.00;;;28.69;52.30
11395;BME280;5753;54.402;10.220;2022-08-01T05:05:00;101346.00;;;29.22;50.07
11395;BME280;5753;54.402;10.220;2022-08-01T05:07:26;101351.63;;;29.00;50.45
11395;BME280;5753;54.402;10.220;2022-08-01T05:09:52;101352.47;;;28.32;52.09
11395;BME280;5753;54.402;10.220;2022-08-01T05:12:18;101351.84;;;28.61;51.89
11395;BME280;5753;54.402;10.220;2022-08-01T05:14:45;101358.25;;;28.74;51.01
11395;BME280;5753;54.402;10.220;2022-08-01T05:17:11;101363.56;;;28.21;52.78
11395;BME280;5753;54.402;10.220;2022-08-01T05:19:39;101364.31;;;28.25;53.04
11395;BME280;5753;54.402;10.220;2022-08-01T05:22:08;101368.00;;;28.20;53.77
11395;BME280;5753;54.402;10.220;2022-08-01T05:24:36;101372.81;;;28.83;51.30
11395;BME280;5753;54.402;10.220;2022-08-01T05:27:03;101376.47;;;28.29;52.69
11395;BME280;5753;54.402;10.220;2022-08-01T05:29:30;101372.59;;;27.42;55.31
11395;BME280;5753;54.402;10.220;2022-08-01T05:31:56;101363.56;;;28.74;52.53
11395;BME280;5753;54.402;10.220;2022-08-01T05:34:23;101369.22;;;28.86;51.35
11395;BME280;5753;54.402;10.220;2022-08-01T05:36:49;101374.31;;;28.71;52.15
11395;BME280;5753;54.402;10.220;2022-08-01T05:39:15;101368.81;;;29.43;50.25
11395;BME280;5753;54.402;10.220;2022-08-01T05:41:42;101366.66;;;29.66;49.33
11395;BME280;5753;54.402;10.220;2022-08-01T05:44:09;101369.25;;;29.01;50.50
11395;BME280;5753;54.402;10.220;2022-08-01T05:46:36;101380.22;;;28.06;52.82
11395;BME280;5753;54.402;10.220;2022-08-01T05:49:03;101379.28;;;28.26;53.33
11395;BME280;5753;54.402;10.220;2022-08-01T05:51:30;101378.06;;;27.39;56.38
11395;BME280;5753;54.402;10.220;2022-08-01T05:53:58;101375.81;;;27.69;55.10
11395;BME280;5753;54.402;10.220;2022-08-01T05:56:24;101394.47;;;28.41;53.23
11395;BME280;5753;54.402;10.220;2022-08-01T05:58:51;101385.53;;;27.49;56.22
11395;BME280;5753;54.402;10.220;2022-08-01T06:01:18;101386.00;;;28.86;51.49
11395;BME280;5753;54.402;10.220;2022-08-01T06:03:45;101401.31;;;28.45;52.64
11395;BME280;5753;54.402;10.220;2022-08-01T06:06:11;101389.63;;;28.66;52.53
11395;BME280;5753;54.402;10.220;2022-08-01T06:08:38;101402.72;;;28.69;51.90
11395;BME280;5753;54.402;10.220;2022-08-01T06:11:04;101414.22;;;28.34;53.07
11395;BME280;5753;54.402;10.220;2022-08-01T06:13:30;101408.25;;;27.74;55.14
11395;BME280;5753;54.402;10.220;2022-08-01T06:15:56;101402.97;;;28.82;52.65
11395;BME280;5753;54.402;10.220;2022-08-01T06:18:23;101414.41;;;26.74;58.07
11395;BME280;5753;54.402;10.220;2022-08-01T06:20:49;101413.53;;;26.30;59.97
11395;BME280;5753;54.402;10.220;2022-08-01T06:23:15;101428.53;;;26.73;59.24
11395;BME280;5753;54.402;10.220;2022-08-01T06:25:42;101417.91;;;26.09;61.19
11395;BME280;5753;54.402;10.220;2022-08-01T06:28:08;101429.06;;;26.39;60.71
11395;BME280;5753;54.402;10.220;2022-08-01T06:30:35;101435.44;;;26.97;59.10
11395;BME280;5753;54.402;10.220;2022-08-01T06:33:01;101437.56;;;26.02;61.00
11395;BME280;5753;54.402;10.220;2022-08-01T06:35:27;101439.44;;;25.02;67.50
11395;BME280;5753;54.402;10.220;2022-08-01T06:37:56;101446.72;;;25.20;65.08
11395;BME280;5753;54.402;10.220;2022-08-01T06:40:22;101452.59;;;26.00;61.37
11395;BME280;5753;54.402;10.220;2022-08-01T06:42:48;101443.59;;;26.27;60.38
11395;BME280;5753;54.402;10.220;2022-08-01T06:45:16;101451.47;;;26.52;59.58
11395;BME280;5753;54.402;10.220;2022-08-01T06:47:44;101449.75;;;26.28;59.90
11395;BME280;5753;54.402;10.220;2022-08-01T06:50:11;101454.94;;;25.61;61.41
11395;BME280;5753;54.402;10.220;2022-08-01T06:52:38;101461.81;;;25.17;63.96
11395;BME280;5753;54.402;10.220;2022-08-01T06:55:04;101466.91;;;24.95;65.39
11395;BME280;5753;54.402;10.220;2022-08-01T06:57:30;101472.69;;;25.57;61.63
11395;BME280;5753;54.402;10.220;2022-08-01T06:59:57;101477.84;;;25.60;62.56
11395;BME280;5753;54.402;10.220;2022-08-01T07:02:23;101484.09;;;26.06;59.88
11395;BME280;5753;54.402;10.220;2022-08-01T07:04:49;101476.16;;;26.73;54.58
11395;BME280;5753;54.402;10.220;2022-08-01T07:07:15;101491.19;;;26.93;53.40
11395;BME280;5753;54.402;10.220;2022-08-01T07:09:42;101489.88;;;26.39;52.28
11395;BME280;5753;54.402;10.220;2022-08-01T07:12:08;101498.91;;;25.12;55.36
11395;BME280;5753;54.402;10.220;2022-08-01T07:14:34;101498.53;;;25.48;52.82
11395;BME280;5753;54.402;10.220;2022-08-01T07:17:00;101502.88;;;24.97;53.45
11395;BME280;5753;54.402;10.220;2022-08-01T07:19:26;101492.41;;;25.22;54.00
11395;BME280;5753;54.402;10.220;2022-08-01T07:21:53;101499.53;;;25.93;52.03
11395;BME280;5753;54.402;10.220;2022-08-01T07:24:19;101502.09;;;25.22;53.87
11395;BME280;5753;54.402;10.220;2022-08-01T07:26:48;101502.59;;;26.06;50.71
11395;BME280;5753;54.402;10.220;2022-08-01T07:29:14;101506.00;;;25.85;50.03
11395;BME280;5753;54.402;10.220;2022-08-01T07:31:41;101507.63;;;24.86;49.45
11395;BME280;5753;54.402;10.220;2022-08-01T07:34:08;101507.34;;;26.65;46.77
11395;BME280;5753;54.402;10.220;2022-08-01T07:36:34;101513.19;;;25.56;48.08
11395;BME280;5753;54.402;10.220;2022-08-01T07:39:00;101509.72;;;26.04;48.02
11395;BME280;5753;54.402;10.220;2022-08-01T07:41:26;101520.56;;;25.47;48.60
11395;BME280;5753;54.402;10.220;2022-08-01T07:43:52;101527.94;;;25.87;48.29
11395;BME280;5753;54.402;10.220;2022-08-01T07:46:18;101524.56;;;26.75;46.59
11395;BME280;5753;54.402;10.220;2022-08-01T07:48:44;101528.13;;;25.57;48.78
11395;BME280;5753;54.402;10.220;2022-08-01T07:51:10;101524.94;;;26.66;47.87
11395;BME280;5753;54.402;10.220;2022-08-01T07:53:37;101526.34;;;26.96;47.17
11395;BME280;5753;54.402;10.220;2022-08-01T07:56:04;101536.97;;;26.95;46.64
11395;BME280;5753;54.402;10.220;2022-08-01T07:58:34;101538.56;;;28.02;45.67
11395;BME280;5753;54.402;10.220;2022-08-01T08:01:00;101546.44;;;27.43;46.84
11395;BME280;5753;54.402;10.220;2022-08-01T08:03:26;101555.53;;;27.57;44.37
11395;BME280;5753;54.402;10.220;2022-08-01T08:05:52;101557.19;;;28.19;44.20
11395;BME280;5753;54.402;10.220;2022-08-01T08:08:18;101566.28;;;27.54;45.79
11395;BME280;5753;54.402;10.220;2022-08-01T08:10:46;101569.47;;;26.55;45.55
11395;BME280;5753;54.402;10.220;2022-08-01T08:13:12;101566.69;;;28.44;42.18
11395;BME280;5753;54.402;10.220;2022-08-01T08:15:38;101574.31;;;27.31;43.27
11395;BME280;5753;54.402;10.220;2022-08-01T08:18:05;101566.19;;;27.56;43.21
11395;BME280;5753;54.402;10.220;2022-08-01T08:20:31;101564.91;;;27.24;41.75
11395;BME280;5753;54.402;10.220;2022-08-01T08:22:57;101566.72;;;27.84;41.29
11395;BME280;5753;54.402;10.220;2022-08-01T08:25:25;101563.31;;;27.62;41.31
11395;BME280;5753;54.402;10.220;2022-08-01T08:27:51;101567.84;;;27.79;41.07
11395;BME280;5753;54.402;10.220;2022-08-01T08:30:18;101576.75;;;27.78;39.79
11395;BME280;5753;54.402;10.220;2022-08-01T08:32:44;101575.06;;;28.35;38.90
11395;BME280;5753;54.402;10.220;2022-08-01T08:35:10;101577.69;;;28.72;37.58
11395;BME280;5753;54.402;10.220;2022-08-01T08:37:37;101572.47;;;30.11;37.41
11395;BME280;5753;54.402;10.220;2022-08-01T08:40:05;101576.34;;;27.46;39.27
11395;BME280;5753;54.402;10.220;2022-08-01T08:42:31;101580.00;;;29.16;39.02
11395;BME280;5753;54.402;10.220;2022-08-01T08:44:57;101587.53;;;27.94;40.01
11395;BME280;5753;54.402;10.220;2022-08-01T08:47:24;101587.06;;;29.86;37.59
11395;BME280;5753;54.402;10.220;2022-08-01T08:49:53;101593.38;;;28.41;38.25
11395;BME280;5753;54.402;10.220;2022-08-01T08:52:20;101599.50;;;26.76;41.74
11395;BME280;5753;54.402;10.220;2022-08-01T08:54:47;101597.72;;;28.03;39.20
11395;BME280;5753;54.402;10.220;2022-08-01T08:57:15;101591.28;;;29.38;36.35
11395;BME280;5753;54.402;10.220;2022-08-01T08:59:43;101599.22;;;28.29;39.13
11395;BME280;5753;54.402;10.220;2022-08-01T09:02:10;101594.78;;;28.09;38.42
11395;BME280;5753;54.402;10.220;2022-08-01T09:04:37;101597.28;;;27.73;38.71
11395;BME280;5753;54.402;10.220;2022-08-01T09:07:05;101600.88;;;28.50;38.05
11395;BME280;5753;54.402;10.220;2022-08-01T09:09:32;101608.66;;;29.45;36.53
11395;BME280;5753;54.402;10.220;2022-08-01T09:11:58;101602.81;;;30.55;35.20
11395;BME280;5753;54.402;10.220;2022-08-01T09:14:25;101605.50;;;30.87;34.07
11395;BME280;5753;54.402;10.220;2022-08-01T09:17:07;101613.31;;;30.25;34.92
11395;BME280;5753;54.402;10.220;2022-08-01T09:19:53;101605.13;;;29.45;36.13
11395;BME280;5753;54.402;10.220;2022-08-01T09:22:22;101608.34;;;28.21;37.31
11395;BME280;5753;54.402;10.220;2022-08-01T09:25:09;101608.16;;;29.72;35.65
11395;BME280;5753;54.402;10.220;2022-08-01T09:27:38;101610.00;;;27.65;37.76
11395;BME280;5753;54.402;10.220;2022-08-01T09:30:13;101624.75;;;29.60;36.04
11395;BME280;5753;54.402;10.220;2022-08-01T09:32:59;101624.25;;;29.69;36.38
11395;BME280;5753;54.402;10.220;2022-08-01T09:35:31;101630.19;;;29.03;36.17
11395;BME280;5753;54.402;10.220;2022-08-01T09:38:22;101617.75;;;31.05;33.12
11395;BME280;5753;54.402;10.220;2022-08-01T09:40:52;101619.22;;;30.15;34.92
11395;BME280;5753;54.402;10.220;2022-08-01T09:43:20;101627.00;;;29.67;35.67
11395;BME280;5753;54.402;10.220;2022-08-01T09:45:47;101629.25;;;29.75;35.53
11395;BME280;5753;54.402;10.220;2022-08-01T09:48:13;101630.88;;;30.45;34.36
11395;BME280;5753;54.402;10.220;2022-08-01T09:50:46;101629.88;;;31.26;32.72
11395;BME280;5753;54.402;10.220;2022-08-01T09:53:13;101629.69;;;29.31;35.58
11395;BME280;5753;54.402;10.220;2022-08-01T09:55:40;101629.56;;;29.34;35.88
11395;BME280;5753;54.402;10.220;2022-08-01T09:58:07;101628.47;;;30.41;33.63
11395;BME280;5753;54.402;10.220;2022-08-01T10:00:35;101633.22;;;30.18;33.45
11395;BME280;5753;54.402;10.220;2022-08-01T10:03:20;101628.97;;;29.81;34.11
11395;BME280;5753;54.402;10.220;2022-08-01T10:05:46;101634.88;;;30.85;32.56
11395;BME280;5753;54.402;10.220;2022-08-01T10:08:13;101640.22;;;29.69;34.22
11395;BME280;5753;54.402;10.220;2022-08-01T10:10:40;101636.38;;;29.04;35.31
11395;BME280;5753;54.402;10.220;2022-08-01T10:13:06;101638.16;;;29.39;33.79
11395;BME280;5753;54.402;10.220;2022-08-01T10:15:34;101647.28;;;28.98;34.92
11395;BME280;5753;54.402;10.220;2022-08-01T10:18:02;101642.84;;;30.21;32.30
11395;BME280;5753;54.402;10.220;2022-08-01T10:20:32;101640.44;;;31.58;30.56
11395;BME280;5753;54.402;10.220;2022-08-01T10:23:03;101650.47;;;31.99;29.76
11395;BME280;5753;54.402;10.220;2022-08-01T10:25:35;101641.91;;;32.79;28.43
11395;BME280;5753;54.402;10.220;2022-08-01T10:28:16;101643.38;;;30.27;30.82
11395;BME280;5753;54.402;10.220;2022-08-01T10:30:43;101646.66;;;31.88;28.91
11395;BME280;5753;54.402;10.220;2022-08-01T10:33:11;101643.06;;;30.49;29.99
11395;BME280;5753;54.402;10.220;2022-08-01T10:35:39;101649.53;;;31.08;29.46
11395;BME280;5753;54.402;10.220;2022-08-01T10:38:06;101652.41;;;30.89;30.02
11395;BME280;5753;54.402;10.220;2022-08-01T10:40:32;101647.69;;;31.86;29.99
11395;BME280;5753;54.402;10.220;2022-08-01T10:42:59;101645.16;;;32.41;27.21
11395;BME280;5753;54.402;10.220;2022-08-01T10:45:25;101648.00;;;32.67;27.23
11395;BME280;5753;54.402;10.220;2022-08-01T10:51:02;101659.34;;;31.39;28.31
11395;BME280;5753;54.402;10.220;2022-08-01T10:53:29;101663.19;;;30.70;28.93
11395;BME280;5753;54.402;10.220;2022-08-01T10:56:05;101665.78;;;31.19;29.52
11395;BME280;5753;54.402;10.220;2022-08-01T10:58:37;101653.31;;;32.10;28.36
11395;BME280;5753;54.402;10.220;2022-08-01T11:01:20;101653.34;;;31.20;29.61
11395;BME280;5753;54.402;10.220;2022-08-01T11:11:28;101657.47;;;31.55;28.89
11395;BME280;5753;54.402;10.220;2022-08-01T11:14:01;101665.75;;;33.63;27.18
11395;BME280;5753;54.402;10.220;2022-08-01T11:16:31;101660.78;;;32.19;26.34
11395;BME280;5753;54.402;10.220;2022-08-01T11:18:58;101653.53;;;34.11;25.52
11395;BME280;5753;54.402;10.220;2022-08-01T11:27:20;101671.94;;;33.09;25.96
11395;BME280;5753;54.402;10.220;2022-08-01T11:32:56;101672.81;;;35.39;24.30
11395;BME280;5753;54.402;10.220;2022-08-01T11:35:24;101675.47;;;34.16;25.30
11395;BME280;5753;54.402;10.220;2022-08-01T11:37:53;101678.66;;;34.47;23.80
11395;BME280;5753;54.402;10.220;2022-08-01T11:40:26;101676.72;;;34.23;24.65
11395;BME280;5753;54.402;10.220;2022-08-01T11:43:18;101669.03;;;34.93;24.38
11395;BME280;5753;54.402;10.220;2022-08-01T11:45:54;101664.75;;;34.16;24.97
11395;BME280;5753;54.402;10.220;2022-08-01T11:48:25;101669.16;;;33.11;25.71
11395;BME280;5753;54.402;10.220;2022-08-01T11:50:53;101674.81;;;34.25;24.30
11395;BME280;5753;54.402;10.220;2022-08-01T11:53:19;101676.53;;;34.14;23.58
11395;BME280;5753;54.402;10.220;2022-08-01T11:55:53;101690.50;;;35.41;23.18
11395;BME280;5753;54.402;10.220;2022-08-01T11:58:24;101679.19;;;34.26;23.39
11395;BME280;5753;54.402;10.220;2022-08-01T12:00:52;101681.84;;;34.52;24.13
11395;BME280;5753;54.402;10.220;2022-08-01T12:03:25;101678.56;;;34.10;24.40
11395;BME280;5753;54.402;10.220;2022-08-01T12:05:56;101678.22;;;33.89;23.01
11395;BME280;5753;54.402;10.220;2022-08-01T12:08:30;101680.78;;;33.51;24.03
11395;BME280;5753;54.402;10.220;2022-08-01T12:11:00;101678.66;;;34.21;23.86
11395;BME280;5753;54.402;10.220;2022-08-01T12:13:27;101673.09;;;35.23;22.99
11395;BME280;5753;54.402;10.220;2022-08-01T12:15:54;101671.69;;;34.57;23.26
11395;BME280;5753;54.402;10.220;2022-08-01T12:18:20;101667.66;;;34.88;23.19
11395;BME280;5753;54.402;10.220;2022-08-01T12:20:47;101676.56;;;35.60;22.59
11395;BME280;5753;54.402;10.220;2022-08-01T12:23:15;101673.50;;;35.88;21.57
11395;BME280;5753;54.402;10.220;2022-08-01T12:25:42;101678.00;;;37.11;20.64
11395;BME280;5753;54.402;10.220;2022-08-01T12:28:13;101670.31;;;35.24;21.52
11395;BME280;5753;54.402;10.220;2022-08-01T12:30:40;101680.94;;;37.08;19.84
11395;BME280;5753;54.402;10.220;2022-08-01T12:33:09;101684.94;;;36.48;20.20
11395;BME280;5753;54.402;10.220;2022-08-01T12:35:37;101692.81;;;37.48;18.90
11395;BME280;5753;54.402;10.220;2022-08-01T12:38:06;101687.91;;;37.95;18.31
11395;BME280;5753;54.402;10.220;2022-08-01T12:40:35;101674.34;;;37.12;19.23
11395;BME280;5753;54.402;10.220;2022-08-01T12:43:04;101671.25;;;37.28;19.43
11395;BME280;5753;54.402;10.220;2022-08-01T12:45:34;101678.72;;;37.98;18.49
11395;BME280;5753;54.402;10.220;2022-08-01T12:48:01;101682.03;;;37.48;18.67
11395;BME280;5753;54.402;10.220;2022-08-01T12:50:32;101685.38;;;38.95;17.20
11395;BME280;5753;54.402;10.220;2022-08-01T12:52:59;101680.13;;;40.74;15.71
11395;BME280;5753;54.402;10.220;2022-08-01T12:55:26;101676.88;;;39.86;16.57
11395;BME280;5753;54.402;10.220;2022-08-01T12:58:13;101690.53;;;40.96;16.58
11395;BME280;5753;54.402;10.220;2022-08-01T13:00:42;101686.25;;;40.02;15.57
11395;BME280;5753;54.402;10.220;2022-08-01T13:03:11;101685.28;;;39.64;15.72
11395;BME280;5753;54.402;10.220;2022-08-01T13:05:54;101693.75;;;40.82;15.73
11395;BME280;5753;54.402;10.220;2022-08-01T13:10:49;101690.75;;;42.52;14.43
11395;BME280;5753;54.402;10.220;2022-08-01T13:13:17;101677.19;;;39.64;15.18
11395;BME280;5753;54.402;10.220;2022-08-01T13:15:44;101676.31;;;39.83;15.98
11395;BME280;5753;54.402;10.220;2022-08-01T13:18:28;101686.66;;;42.14;14.11
11395;BME280;5753;54.402;10.220;2022-08-01T13:23:37;101681.38;;;41.86;14.21
11395;BME280;5753;54.402;10.220;2022-08-01T13:26:04;101683.41;;;42.86;13.74
11395;BME280;5753;54.402;10.220;2022-08-01T13:28:30;101678.25;;;41.19;14.79
11395;BME280;5753;54.402;10.220;2022-08-01T13:31:00;101683.09;;;42.13;14.47
11395;BME280;5753;54.402;10.220;2022-08-01T13:33:28;101682.81;;;43.41;13.62
11395;BME280;5753;54.402;10.220;2022-08-01T13:36:06;101683.97;;;44.82;13.23
11395;BME280;5753;54.402;10.220;2022-08-01T13:38:33;101683.28;;;44.02;12.86
11395;BME280;5753;54.402;10.220;2022-08-01T13:41:18;101686.84;;;42.54;14.15
11395;BME280;5753;54.402;10.220;2022-08-01T13:43:44;101680.56;;;44.57;13.40
11395;BME280;5753;54.402;10.220;2022-08-01T13:46:10;101691.97;;;45.37;13.02
11395;BME280;5753;54.402;10.220;2022-08-01T13:48:36;101690.09;;;42.24;14.19
11395;BME280;5753;54.402;10.220;2022-08-01T13:51:02;101692.56;;;45.47;12.93
11395;BME280;5753;54.402;10.220;2022-08-01T13:53:29;101691.28;;;43.06;13.70
11395;BME280;5753;54.402;10.220;2022-08-01T13:55:55;101694.53;;;44.54;13.04
11395;BME280;5753;54.402;10.220;2022-08-01T13:58:21;101693.16;;;44.11;13.60
11395;BME280;5753;54.402;10.220;2022-08-01T14:00:48;101693.84;;;44.44;13.76
11395;BME280;5753;54.402;10.220;2022-08-01T14:03:14;101687.66;;;41.87;14.16
11395;BME280;5753;54.402;10.220;2022-08-01T14:05:43;101691.84;;;45.08;12.82
11395;BME280;5753;54.402;10.220;2022-08-01T14:08:09;101693.88;;;46.63;11.77
11395;BME280;5753;54.402;10.220;2022-08-01T14:10:35;101704.81;;;47.42;11.76
11395;BME280;5753;54.402;10.220;2022-08-01T14:13:02;101694.31;;;46.45;10.80
11395;BME280;5753;54.402;10.220;2022-08-01T14:15:28;101696.16;;;45.25;12.65
11395;BME280;5753;54.402;10.220;2022-08-01T14:17:54;101692.84;;;46.34;11.09
11395;BME280;5753;54.402;10.220;2022-08-01T14:20:20;101698.50;;;46.33;12.33
11395;BME280;5753;54.402;10.220;2022-08-01T14:22:47;101695.75;;;48.66;10.81
11395;BME280;5753;54.402;10.220;2022-08-01T14:25:13;101696.13;;;49.44;11.22
11395;BME280;5753;54.402;10.220;2022-08-01T14:27:39;101700.50;;;50.56;10.12
11395;BME280;5753;54.402;10.220;2022-08-01T14:30:08;101696.34;;;51.23;9.19
11395;BME280;5753;54.402;10.220;2022-08-01T14:32:34;101698.22;;;49.82;9.19
11395;BME280;5753;54.402;10.220;2022-08-01T14:35:02;101697.41;;;49.61;10.01
11395;BME280;5753;54.402;10.220;2022-08-01T14:37:28;101690.16;;;45.90;11.70
11395;BME280;5753;54.402;10.220;2022-08-01T14:39:58;101698.22;;;46.57;11.75
11395;BME280;5753;54.402;10.220;2022-08-01T14:42:24;101694.69;;;46.13;12.45
11395;BME280;5753;54.402;10.220;2022-08-01T14:44:51;101697.19;;;46.58;12.09
11395;BME280;5753;54.402;10.220;2022-08-01T14:47:17;101699.03;;;46.36;12.91
11395;BME280;5753;54.402;10.220;2022-08-01T14:49:43;101699.63;;;44.57;12.95
11395;BME280;5753;54.402;10.220;2022-08-01T14:52:09;101692.22;;;45.05;12.33
11395;BME280;5753;54.402;10.220;2022-08-01T14:54:35;101690.31;;;47.41;11.67
11395;BME280;5753;54.402;10.220;2022-08-01T14:57:01;101699.97;;;46.80;11.95
11395;BME280;5753;54.402;10.220;2022-08-01T14:59:27;101698.88;;;46.59;12.21
11395;BME280;5753;54.402;10.220;2022-08-01T15:01:53;101709.06;;;47.93;11.33
11395;BME280;5753;54.402;10.220;2022-08-01T15:04:19;101704.56;;;47.37;10.84
11395;BME280;5753;54.402;10.220;2022-08-01T15:06:46;101704.34;;;46.59;12.19
11395;BME280;5753;54.402;10.220;2022-08-01T15:09:12;101700.75;;;46.73;11.86
11395;BME280;5753;54.402;10.220;2022-08-01T15:11:38;101698.72;;;46.17;12.28
11395;BME280;5753;54.402;10.220;2022-08-01T15:14:04;101701.44;;;47.18;11.35
11395;BME280;5753;54.402;10.220;2022-08-01T15:16:49;101704.31;;;47.31;11.35
11395;BME280;5753;54.402;10.220;2022-08-01T15:19:15;101706.16;;;46.08;11.82
11395;BME280;5753;54.402;10.220;2022-08-01T15:21:41;101707.22;;;45.01;13.22
11395;BME280;5753;54.402;10.220;2022-08-01T15:24:07;101704.09;;;44.34;13.50
11395;BME280;5753;54.402;10.220;2022-08-01T15:26:35;101703.22;;;48.38;10.93
11395;BME280;5753;54.402;10.220;2022-08-01T15:29:01;101703.22;;;46.24;12.44
11395;BME280;5753;54.402;10.220;2022-08-01T15:31:27;101700.91;;;44.69;13.93
11395;BME280;5753;54.402;10.220;2022-08-01T15:33:53;101702.97;;;44.20;13.21
11395;BME280;5753;54.402;10.220;2022-08-01T15:36:20;101706.78;;;43.54;14.26
11395;BME280;5753;54.402;10.220;2022-08-01T15:38:46;101713.59;;;45.76;13.22
11395;BME280;5753;54.402;10.220;2022-08-01T15:41:12;101710.03;;;47.58;11.79
11395;BME280;5753;54.402;10.220;2022-08-01T15:43:38;101711.44;;;46.90;11.80
11395;BME280;5753;54.402;10.220;2022-08-01T15:46:04;101708.25;;;48.34;10.61
11395;BME280;5753;54.402;10.220;2022-08-01T15:48:30;101716.47;;;46.27;12.35
11395;BME280;5753;54.402;10.220;2022-08-01T15:50:56;101704.88;;;44.89;13.16
11395;BME280;5753;54.402;10.220;2022-08-01T15:53:23;101716.00;;;45.94;12.14
11395;BME280;5753;54.402;10.220;2022-08-01T15:55:49;101708.50;;;46.11;12.55
11395;BME280;5753;54.402;10.220;2022-08-01T15:58:15;101712.34;;;44.96;12.97
11395;BME280;5753;54.402;10.220;2022-08-01T16:00:41;101718.47;;;43.87;14.10
11395;BME280;5753;54.402;10.220;2022-08-01T16:03:07;101713.03;;;45.43;12.51
11395;BME280;5753;54.402;10.220;2022-08-01T16:05:35;101709.13;;;42.06;15.17
11395;BME280;5753;54.402;10.220;2022-08-01T16:08:02;101715.97;;;44.80;13.54
11395;BME280;5753;54.402;10.220;2022-08-01T16:10:29;101722.94;;;45.36;12.85
11395;BME280;5753;54.402;10.220;2022-08-01T16:12:55;101716.09;;;43.76;13.95
11395;BME280;5753;54.402;10.220;2022-08-01T16:15:21;101720.19;;;43.72;13.72
11395;BME280;5753;54.402;10.220;2022-08-01T16:17:47;101724.41;;;44.62;13.35
11395;BME280;5753;54.402;10.220;2022-08-01T16:20:13;101723.00;;;43.05;14.70
11395;BME280;5753;54.402;10.220;2022-08-01T16:22:39;101725.44;;;45.69;12.97
11395;BME280;5753;54.402;10.220;2022-08-01T16:25:05;101731.72;;;47.02;12.06
11395;BME280;5753;54.402;10.220;2022-08-01T16:27:32;101731.72;;;46.22;11.83
11395;BME280;5753;54.402;10.220;2022-08-01T16:29:58;101721.84;;;44.05;13.54
11395;BME280;5753;54.402;10.220;2022-08-01T16:32:24;101721.47;;;44.24;13.58
11395;BME280;5753;54.402;10.220;2022-08-01T16:34:50;101725.94;;;44.01;13.77
11395;BME280;5753;54.402;10.220;2022-08-01T16:37:16;101731.63;;;44.47;13.34
11395;BME280;5753;54.402;10.220;2022-08-01T16:39:42;101733.53;;;45.77;12.90
11395;BME280;5753;54.402;10.220;2022-08-01T16:42:11;101731.19;;;41.67;14.89
11395;BME280;5753;54.402;10.220;2022-08-01T16:44:37;101720.47;;;43.20;13.75
11395;BME280;5753;54.402;10.220;2022-08-01T16:47:03;101735.94;;;43.35;14.21
11395;BME280;5753;54.402;10.220;2022-08-01T16:49:29;101729.31;;;43.38;14.39
11395;BME280;5753;54.402;10.220;2022-08-01T16:51:56;101730.88;;;43.65;13.70
11395;BME280;5753;54.402;10.220;2022-08-01T16:54:22;101732.09;;;42.96;14.23
11395;BME280;5753;54.402;10.220;2022-08-01T16:56:48;101734.94;;;43.61;13.96
11395;BME280;5753;54.402;10.220;2022-08-01T16:59:14;101739.00;;;43.41;14.40
11395;BME280;5753;54.402;10.220;2022-08-01T17:01:41;101733.41;;;41.72;14.70
11395;BME280;5753;54.402;10.220;2022-08-01T17:04:07;101737.53;;;42.54;14.72
11395;BME280;5753;54.402;10.220;2022-08-01T17:06:33;101735.59;;;44.04;13.56
11395;BME280;5753;54.402;10.220;2022-08-01T17:08:59;101737.66;;;42.18;14.62
11395;BME280;5753;54.402;10.220;2022-08-01T17:11:25;101746.50;;;42.88;14.51
11395;BME280;5753;54.402;10.220;2022-08-01T17:13:52;101736.63;;;42.79;14.52
11395;BME280;5753;54.402;10.220;2022-08-01T17:16:18;101741.22;;;40.94;15.79
11395;BME280;5753;54.402;10.220;2022-08-01T17:18:44;101737.97;;;41.36;15.72